DAL1341 KATL-KFLL
Flight info
| Callsign | DAL1341 |
|---|---|
| Flight time | 1h 27m |
| Altitude | 35000 |
| Route | SMLTZ3 WALET ZPLEN TEEKY3 |
| Aircraft | B712/M-SDFGHRWY/C |
Departure
| Time | 2026-05-03 21:16 |
|---|---|
| Airport | Hartsfield Jackson Atlanta International Airport (KATL) |
Arrival
| Time | 2026-05-03 22:44 |
|---|---|
| Airport | Fort Lauderdale Hollywood International Airport (KFLL) |
| Time | Latitude | Longitude | Altitude | Speed | Heading |
|---|---|---|---|---|---|
| 2026-05-03 20:43 | 33.64179 | -84.43192 | 1035 ft | 0 kts | 270° |
| 2026-05-03 20:55 | 33.64179 | -84.43168 | 1035 ft | 4 kts | 265° |
| 2026-05-03 20:55 | 33.64188 | -84.43142 | 1035 ft | 4 kts | 219° |
| 2026-05-03 20:55 | 33.64211 | -84.43133 | 1035 ft | 4 kts | 182° |
| 2026-05-03 20:56 | 33.64227 | -84.43133 | 1035 ft | 1 kts | 180° |
| 2026-05-03 20:56 | 33.64229 | -84.43133 | 1035 ft | 0 kts | 180° |
| 2026-05-03 20:58 | 33.64228 | -84.43133 | 1035 ft | 1 kts | 179° |
| 2026-05-03 20:58 | 33.64203 | -84.43132 | 1035 ft | 7 kts | 178° |
| 2026-05-03 20:58 | 33.64139 | -84.43131 | 1035 ft | 11 kts | 179° |
| 2026-05-03 20:58 | 33.64048 | -84.43131 | 1035 ft | 15 kts | 180° |
| 2026-05-03 20:59 | 33.63936 | -84.43130 | 1035 ft | 18 kts | 180° |
| 2026-05-03 20:59 | 33.63853 | -84.43131 | 1035 ft | 9 kts | 180° |
| 2026-05-03 20:59 | 33.63798 | -84.43131 | 1035 ft | 6 kts | 181° |
| 2026-05-03 20:59 | 33.63762 | -84.43131 | 1035 ft | 3 kts | 180° |
| 2026-05-03 21:00 | 33.63736 | -84.43131 | 1035 ft | 7 kts | 180° |
| 2026-05-03 21:00 | 33.63720 | -84.43131 | 1035 ft | 7 kts | 176° |
| 2026-05-03 21:00 | 33.63664 | -84.43068 | 1035 ft | 7 kts | 93° |
| 2026-05-03 21:00 | 33.63665 | -84.43006 | 1035 ft | 7 kts | 89° |
| 2026-05-03 21:01 | 33.63665 | -84.42938 | 1035 ft | 9 kts | 90° |
| 2026-05-03 21:01 | 33.63665 | -84.42853 | 1035 ft | 11 kts | 90° |
| 2026-05-03 21:01 | 33.63661 | -84.42749 | 1035 ft | 14 kts | 96° |
| 2026-05-03 21:01 | 33.63656 | -84.42626 | 1035 ft | 16 kts | 90° |
| 2026-05-03 21:02 | 33.63656 | -84.42486 | 1035 ft | 18 kts | 89° |
| 2026-05-03 21:02 | 33.63656 | -84.42328 | 1035 ft | 20 kts | 90° |
| 2026-05-03 21:02 | 33.63656 | -84.42153 | 1035 ft | 22 kts | 90° |
| 2026-05-03 21:02 | 33.63656 | -84.41960 | 1035 ft | 24 kts | 90° |
| 2026-05-03 21:03 | 33.63656 | -84.41759 | 1035 ft | 24 kts | 90° |
| 2026-05-03 21:03 | 33.63656 | -84.41585 | 1035 ft | 13 kts | 89° |
| 2026-05-03 21:03 | 33.63656 | -84.41495 | 1035 ft | 9 kts | 90° |
| 2026-05-03 21:03 | 33.63656 | -84.41414 | 1035 ft | 17 kts | 90° |
| 2026-05-03 21:04 | 33.63656 | -84.41262 | 1035 ft | 17 kts | 90° |
| 2026-05-03 21:04 | 33.63656 | -84.41138 | 1035 ft | 13 kts | 90° |
| 2026-05-03 21:04 | 33.63656 | -84.41046 | 1035 ft | 9 kts | 90° |
| 2026-05-03 21:04 | 33.63656 | -84.40989 | 1035 ft | 3 kts | 90° |
| 2026-05-03 21:05 | 33.63656 | -84.40985 | 1035 ft | 0 kts | 90° |
| 2026-05-03 21:07 | 33.63656 | -84.40958 | 1035 ft | 7 kts | 92° |
| 2026-05-03 21:08 | 33.63651 | -84.40933 | 1035 ft | 1 kts | 111° |
| 2026-05-03 21:08 | 33.63636 | -84.40917 | 1035 ft | 0 kts | 169° |
| 2026-05-03 21:10 | 33.63630 | -84.40916 | 1035 ft | 6 kts | 172° |
| 2026-05-03 21:10 | 33.63609 | -84.40914 | 1035 ft | 5 kts | 176° |
| 2026-05-03 21:10 | 33.63582 | -84.40913 | 1035 ft | 1 kts | 179° |
| 2026-05-03 21:10 | 33.63574 | -84.40913 | 1035 ft | 0 kts | 180° |
| 2026-05-03 21:13 | 33.63570 | -84.40913 | 1035 ft | 2 kts | 180° |
| 2026-05-03 21:13 | 33.63546 | -84.40913 | 1035 ft | 5 kts | 180° |
| 2026-05-03 21:13 | 33.63505 | -84.40913 | 1035 ft | 6 kts | 180° |
| 2026-05-03 21:13 | 33.63482 | -84.40915 | 1035 ft | 0 kts | 200° |
| 2026-05-03 21:14 | 33.63471 | -84.40928 | 1035 ft | 0 kts | 246° |
| 2026-05-03 21:14 | 33.63470 | -84.40948 | 1035 ft | 0 kts | 271° |
| 2026-05-03 21:14 | 33.63470 | -84.40953 | 1035 ft | 1 kts | 272° |
| 2026-05-03 21:14 | 33.63470 | -84.40954 | 1035 ft | 0 kts | 272° |
| 2026-05-03 21:15 | 33.63470 | -84.40955 | 1035 ft | 0 kts | 272° |
| 2026-05-03 21:15 | 33.63470 | -84.40957 | 1035 ft | 0 kts | 272° |
| 2026-05-03 21:15 | 33.63470 | -84.40959 | 1035 ft | 2 kts | 272° |
| 2026-05-03 21:15 | 33.63472 | -84.41106 | 1035 ft | 36 kts | 270° |
| 2026-05-03 21:16 | 33.63471 | -84.41627 | 1035 ft | 89 kts | 270° |
| 2026-05-03 21:16 | 33.63472 | -84.42572 | 1035 ft | 135 kts | 270° |
| 2026-05-03 21:16 | 33.63464 | -84.43827 | 1215 ft | 154 kts | 267° |
| 2026-05-03 21:16 | 33.63426 | -84.45111 | 1731 ft | 160 kts | 268° |
| 2026-05-03 21:17 | 33.63422 | -84.46514 | 2092 ft | 173 kts | 271° |
| 2026-05-03 21:17 | 33.63451 | -84.47461 | 2618 ft | 164 kts | 271° |
| 2026-05-03 21:17 | 33.63480 | -84.49318 | 3429 ft | 166 kts | 271° |
| 2026-05-03 21:17 | 33.63487 | -84.50694 | 4043 ft | 167 kts | 270° |
| 2026-05-03 21:18 | 33.63489 | -84.52163 | 4433 ft | 186 kts | 270° |
| 2026-05-03 21:18 | 33.63488 | -84.53841 | 4589 ft | 219 kts | 270° |
| 2026-05-03 21:18 | 33.63484 | -84.55831 | 4880 ft | 251 kts | 270° |
| 2026-05-03 21:18 | 33.63478 | -84.57938 | 5623 ft | 260 kts | 270° |
| 2026-05-03 21:19 | 33.63471 | -84.60134 | 6453 ft | 266 kts | 270° |
| 2026-05-03 21:19 | 33.63377 | -84.62408 | 7331 ft | 271 kts | 262° |
| 2026-05-03 21:19 | 33.62855 | -84.64563 | 8200 ft | 276 kts | 245° |
| 2026-05-03 21:19 | 33.61749 | -84.66462 | 9033 ft | 283 kts | 226° |
| 2026-05-03 21:20 | 33.60230 | -84.67988 | 9890 ft | 288 kts | 215° |
| 2026-05-03 21:20 | 33.58387 | -84.68997 | 10723 ft | 296 kts | 198° |
| 2026-05-03 21:20 | 33.56322 | -84.69313 | 11528 ft | 304 kts | 181° |
| 2026-05-03 21:20 | 33.54192 | -84.69101 | 12327 ft | 311 kts | 175° |
| 2026-05-03 21:21 | 33.52018 | -84.68702 | 13152 ft | 315 kts | 174° |
| 2026-05-03 21:21 | 33.49848 | -84.68279 | 13653 ft | 321 kts | 174° |
| 2026-05-03 21:21 | 33.47629 | -84.67855 | 14382 ft | 323 kts | 174° |
| 2026-05-03 21:21 | 33.45412 | -84.67434 | 15283 ft | 324 kts | 174° |
| 2026-05-03 21:22 | 33.43206 | -84.66819 | 16076 ft | 330 kts | 163° |
| 2026-05-03 21:22 | 33.41134 | -84.65536 | 16767 ft | 343 kts | 147° |
| 2026-05-03 21:22 | 33.39246 | -84.63630 | 16950 ft | 368 kts | 138° |
| 2026-05-03 21:22 | 33.37380 | -84.61394 | 17047 ft | 391 kts | 136° |
| 2026-05-03 21:23 | 33.35414 | -84.59017 | 17134 ft | 412 kts | 137° |
| 2026-05-03 21:23 | 33.33334 | -84.56545 | 17218 ft | 429 kts | 137° |
| 2026-05-03 21:23 | 33.31172 | -84.53996 | 17340 ft | 443 kts | 137° |
| 2026-05-03 21:23 | 33.28959 | -84.51389 | 17708 ft | 449 kts | 137° |
| 2026-05-03 21:24 | 33.26724 | -84.48756 | 18102 ft | 453 kts | 137° |
| 2026-05-03 21:24 | 33.24467 | -84.46101 | 18537 ft | 457 kts | 137° |
| 2026-05-03 21:24 | 33.22197 | -84.43432 | 18949 ft | 460 kts | 138° |
| 2026-05-03 21:24 | 33.19908 | -84.40743 | 19356 ft | 463 kts | 138° |
| 2026-05-03 21:25 | 33.17608 | -84.38043 | 19724 ft | 466 kts | 138° |
| 2026-05-03 21:25 | 33.15288 | -84.35322 | 20128 ft | 468 kts | 138° |
| 2026-05-03 21:25 | 33.12975 | -84.32612 | 20488 ft | 471 kts | 138° |
| 2026-05-03 21:25 | 33.10629 | -84.29865 | 20839 ft | 474 kts | 139° |
| 2026-05-03 21:26 | 33.08264 | -84.27097 | 21176 ft | 477 kts | 139° |
| 2026-05-03 21:26 | 33.05887 | -84.24319 | 21544 ft | 479 kts | 139° |
| 2026-05-03 21:26 | 33.03498 | -84.21528 | 21864 ft | 482 kts | 139° |
| 2026-05-03 21:26 | 33.01026 | -84.18828 | 22157 ft | 483 kts | 146° |
| 2026-05-03 21:27 | 32.98214 | -84.16681 | 22503 ft | 476 kts | 159° |
| 2026-05-03 21:27 | 32.95146 | -84.15193 | 22779 ft | 475 kts | 166° |
| 2026-05-03 21:27 | 32.92000 | -84.13954 | 23107 ft | 475 kts | 167° |
| 2026-05-03 21:27 | 32.88858 | -84.12713 | 23423 ft | 478 kts | 166° |
| 2026-05-03 21:28 | 32.85707 | -84.11430 | 23699 ft | 480 kts | 166° |
| 2026-05-03 21:28 | 32.82543 | -84.10127 | 23994 ft | 482 kts | 166° |
| 2026-05-03 21:28 | 32.79353 | -84.08813 | 24260 ft | 484 kts | 166° |
| 2026-05-03 21:28 | 32.76170 | -84.07505 | 24519 ft | 486 kts | 167° |
| 2026-05-03 21:29 | 32.72973 | -84.06193 | 24824 ft | 487 kts | 167° |
| 2026-05-03 21:29 | 32.69763 | -84.04877 | 25131 ft | 487 kts | 167° |
| 2026-05-03 21:29 | 32.66571 | -84.03568 | 25518 ft | 486 kts | 167° |
| 2026-05-03 21:29 | 32.63377 | -84.02260 | 25857 ft | 485 kts | 167° |
| 2026-05-03 21:30 | 32.60184 | -84.00954 | 26213 ft | 485 kts | 168° |
| 2026-05-03 21:30 | 32.56994 | -83.99650 | 26582 ft | 484 kts | 168° |
| 2026-05-03 21:30 | 32.53858 | -83.98368 | 26970 ft | 482 kts | 168° |
| 2026-05-03 21:30 | 32.50687 | -83.97074 | 27346 ft | 481 kts | 168° |
| 2026-05-03 21:31 | 32.47519 | -83.95782 | 27720 ft | 481 kts | 169° |
| 2026-05-03 21:31 | 32.44363 | -83.94496 | 28097 ft | 480 kts | 169° |
| 2026-05-03 21:31 | 32.41199 | -83.93207 | 28478 ft | 479 kts | 169° |
| 2026-05-03 21:31 | 32.38044 | -83.91926 | 28862 ft | 478 kts | 170° |
| 2026-05-03 21:32 | 32.34894 | -83.90718 | 29248 ft | 475 kts | 172° |
| 2026-05-03 21:32 | 32.31736 | -83.89574 | 29645 ft | 473 kts | 172° |
| 2026-05-03 21:32 | 32.28594 | -83.88453 | 30040 ft | 472 kts | 172° |
| 2026-05-03 21:32 | 32.25449 | -83.87328 | 30437 ft | 471 kts | 173° |
| 2026-05-03 21:33 | 32.22328 | -83.86210 | 30879 ft | 469 kts | 173° |
| 2026-05-03 21:33 | 32.19204 | -83.85090 | 31322 ft | 466 kts | 173° |
| 2026-05-03 21:33 | 32.16112 | -83.83983 | 31772 ft | 464 kts | 173° |
| 2026-05-03 21:33 | 32.13027 | -83.82880 | 32209 ft | 461 kts | 174° |
| 2026-05-03 21:34 | 32.09967 | -83.81786 | 32626 ft | 459 kts | 174° |
| 2026-05-03 21:34 | 32.06916 | -83.80696 | 33057 ft | 457 kts | 174° |
| 2026-05-03 21:34 | 32.03875 | -83.79611 | 33511 ft | 454 kts | 174° |
| 2026-05-03 21:34 | 32.00854 | -83.78534 | 33914 ft | 452 kts | 174° |
| 2026-05-03 21:35 | 31.97845 | -83.77461 | 34328 ft | 451 kts | 175° |
| 2026-05-03 21:35 | 31.94854 | -83.76395 | 34756 ft | 448 kts | 175° |
| 2026-05-03 21:35 | 31.91835 | -83.75322 | 35004 ft | 448 kts | 175° |
| 2026-05-03 21:35 | 31.88895 | -83.74277 | 35086 ft | 446 kts | 175° |
| 2026-05-03 21:36 | 31.82961 | -83.72168 | 35132 ft | 443 kts | 175° |
| 2026-05-03 21:36 | 31.77045 | -83.70070 | 35142 ft | 443 kts | 175° |
| 2026-05-03 21:37 | 31.71163 | -83.67983 | 35145 ft | 441 kts | 175° |
| 2026-05-03 21:37 | 31.65280 | -83.65791 | 35147 ft | 444 kts | 174° |
| 2026-05-03 21:38 | 31.59406 | -83.63531 | 35148 ft | 444 kts | 174° |
| 2026-05-03 21:38 | 31.53543 | -83.61282 | 35150 ft | 444 kts | 174° |
| 2026-05-03 21:39 | 31.47665 | -83.59031 | 35153 ft | 444 kts | 174° |
| 2026-05-03 21:39 | 31.41796 | -83.56786 | 35154 ft | 444 kts | 174° |
| 2026-05-03 21:40 | 31.35911 | -83.54538 | 35154 ft | 444 kts | 174° |
| 2026-05-03 21:40 | 31.30047 | -83.52301 | 35152 ft | 444 kts | 174° |
| 2026-05-03 21:41 | 31.24170 | -83.50063 | 35149 ft | 446 kts | 174° |
| 2026-05-03 21:41 | 31.18283 | -83.47821 | 35142 ft | 444 kts | 174° |
| 2026-05-03 21:42 | 31.12381 | -83.45580 | 35139 ft | 446 kts | 174° |
| 2026-05-03 21:42 | 31.06521 | -83.43355 | 35134 ft | 445 kts | 174° |
| 2026-05-03 21:43 | 31.00627 | -83.41122 | 35128 ft | 446 kts | 174° |
| 2026-05-03 21:43 | 30.94730 | -83.38889 | 35127 ft | 444 kts | 174° |
| 2026-05-03 21:44 | 30.89811 | -83.37029 | 35127 ft | 443 kts | 174° |
| 2026-05-03 21:44 | 30.83967 | -83.34824 | 35129 ft | 444 kts | 174° |
| 2026-05-03 21:45 | 30.78082 | -83.32604 | 35133 ft | 444 kts | 174° |
| 2026-05-03 21:45 | 30.72195 | -83.30360 | 35135 ft | 447 kts | 172° |
| 2026-05-03 21:46 | 30.66399 | -83.27475 | 35136 ft | 457 kts | 167° |
| 2026-05-03 21:46 | 30.60642 | -83.24346 | 35132 ft | 456 kts | 167° |
| 2026-05-03 21:47 | 30.54879 | -83.21244 | 35130 ft | 456 kts | 168° |
| 2026-05-03 21:47 | 30.49118 | -83.18149 | 35125 ft | 454 kts | 168° |
| 2026-05-03 21:48 | 30.43442 | -83.15100 | 35121 ft | 447 kts | 168° |
| 2026-05-03 21:48 | 30.37790 | -83.12076 | 35120 ft | 448 kts | 168° |
| 2026-05-03 21:49 | 30.32115 | -83.09039 | 35119 ft | 448 kts | 168° |
| 2026-05-03 21:49 | 30.26459 | -83.06016 | 35125 ft | 448 kts | 168° |
| 2026-05-03 21:50 | 30.20813 | -83.03003 | 35126 ft | 450 kts | 168° |
| 2026-05-03 21:50 | 30.15120 | -82.99966 | 35124 ft | 450 kts | 168° |
| 2026-05-03 21:51 | 30.09396 | -82.96919 | 35122 ft | 450 kts | 168° |
| 2026-05-03 21:51 | 30.03740 | -82.93911 | 35120 ft | 450 kts | 168° |
| 2026-05-03 21:52 | 29.98049 | -82.90889 | 35119 ft | 449 kts | 168° |
| 2026-05-03 21:52 | 29.92372 | -82.87877 | 35117 ft | 449 kts | 168° |
| 2026-05-03 21:53 | 29.86691 | -82.84868 | 35115 ft | 449 kts | 168° |
| 2026-05-03 21:53 | 29.81026 | -82.81869 | 35113 ft | 446 kts | 168° |
| 2026-05-03 21:54 | 29.75373 | -82.78884 | 35113 ft | 447 kts | 168° |
| 2026-05-03 21:54 | 29.69713 | -82.75897 | 35113 ft | 447 kts | 168° |
| 2026-05-03 21:55 | 29.64096 | -82.72936 | 35111 ft | 447 kts | 168° |
| 2026-05-03 21:55 | 29.58439 | -82.69958 | 35108 ft | 447 kts | 168° |
| 2026-05-03 21:56 | 29.52784 | -82.66984 | 35108 ft | 447 kts | 168° |
| 2026-05-03 21:56 | 29.47120 | -82.64010 | 35107 ft | 447 kts | 168° |
| 2026-05-03 21:57 | 29.41458 | -82.61040 | 35106 ft | 447 kts | 168° |
| 2026-05-03 21:57 | 29.35802 | -82.58077 | 35105 ft | 447 kts | 168° |
| 2026-05-03 21:58 | 29.30137 | -82.55112 | 35102 ft | 447 kts | 168° |
| 2026-05-03 21:58 | 29.24400 | -82.52942 | 35101 ft | 417 kts | 186° |
| 2026-05-03 21:59 | 29.21589 | -82.52723 | 35091 ft | 394 kts | 192° |
| 2026-05-03 21:59 | 29.18903 | -82.52706 | 35088 ft | 378 kts | 193° |
| 2026-05-03 21:59 | 29.13747 | -82.52730 | 35092 ft | 369 kts | 193° |
| 2026-05-03 22:00 | 29.08582 | -82.52739 | 35094 ft | 375 kts | 193° |
| 2026-05-03 22:00 | 29.03300 | -82.52738 | 35093 ft | 383 kts | 193° |
| 2026-05-03 22:01 | 28.97967 | -82.52732 | 35090 ft | 382 kts | 193° |
| 2026-05-03 22:01 | 28.92657 | -82.52727 | 35088 ft | 380 kts | 193° |
| 2026-05-03 22:02 | 28.87360 | -82.52726 | 35087 ft | 381 kts | 193° |
| 2026-05-03 22:02 | 28.82053 | -82.52724 | 35087 ft | 383 kts | 193° |
| 2026-05-03 22:03 | 28.76635 | -82.52725 | 35090 ft | 392 kts | 192° |
| 2026-05-03 22:03 | 28.71187 | -82.52718 | 35088 ft | 391 kts | 192° |
| 2026-05-03 22:04 | 28.65736 | -82.52716 | 35089 ft | 392 kts | 192° |
| 2026-05-03 22:04 | 28.60275 | -82.52712 | 35088 ft | 392 kts | 192° |
| 2026-05-03 22:05 | 28.54851 | -82.52709 | 35087 ft | 392 kts | 192° |
| 2026-05-03 22:05 | 28.49393 | -82.52706 | 35086 ft | 392 kts | 192° |
| 2026-05-03 22:06 | 28.43941 | -82.52704 | 35086 ft | 392 kts | 192° |
| 2026-05-03 22:06 | 28.38487 | -82.52701 | 35085 ft | 392 kts | 192° |
| 2026-05-03 22:07 | 28.33030 | -82.52698 | 35084 ft | 392 kts | 192° |
| 2026-05-03 22:07 | 28.27584 | -82.52694 | 35081 ft | 390 kts | 192° |
| 2026-05-03 22:08 | 28.22151 | -82.52693 | 35078 ft | 391 kts | 192° |
| 2026-05-03 22:08 | 28.16741 | -82.52690 | 35076 ft | 391 kts | 192° |
| 2026-05-03 22:09 | 28.11257 | -82.52687 | 35072 ft | 391 kts | 192° |
| 2026-05-03 22:10 | 28.03114 | -82.52675 | 35065 ft | 392 kts | 191° |
| 2026-05-03 22:10 | 28.00355 | -82.52461 | 35066 ft | 404 kts | 184° |
| 2026-05-03 22:10 | 27.97567 | -82.51800 | 35065 ft | 416 kts | 178° |
| 2026-05-03 22:11 | 27.91967 | -82.49867 | 35064 ft | 421 kts | 175° |
| 2026-05-03 22:11 | 27.86333 | -82.47856 | 35060 ft | 424 kts | 175° |
| 2026-05-03 22:12 | 27.80695 | -82.45858 | 35057 ft | 427 kts | 175° |
| 2026-05-03 22:12 | 27.75024 | -82.43849 | 35055 ft | 426 kts | 175° |
| 2026-05-03 22:13 | 27.69360 | -82.41846 | 35056 ft | 426 kts | 175° |
| 2026-05-03 22:13 | 27.63692 | -82.39843 | 35057 ft | 426 kts | 175° |
| 2026-05-03 22:14 | 27.58029 | -82.37845 | 35057 ft | 427 kts | 175° |
| 2026-05-03 22:14 | 27.52360 | -82.35846 | 35057 ft | 427 kts | 175° |
| 2026-05-03 22:15 | 27.46690 | -82.33850 | 35058 ft | 427 kts | 175° |
| 2026-05-03 22:15 | 27.40993 | -82.31846 | 35058 ft | 430 kts | 175° |
| 2026-05-03 22:16 | 27.35373 | -82.29209 | 35058 ft | 447 kts | 164° |
| 2026-05-03 22:16 | 27.29919 | -82.25741 | 35057 ft | 451 kts | 163° |
| 2026-05-03 22:17 | 27.24460 | -82.22262 | 35057 ft | 450 kts | 163° |
| 2026-05-03 22:17 | 27.19003 | -82.18811 | 35061 ft | 460 kts | 162° |
| 2026-05-03 22:18 | 27.13337 | -82.15229 | 34320 ft | 475 kts | 162° |
| 2026-05-03 22:18 | 27.10471 | -82.13409 | 33777 ft | 470 kts | 162° |
| 2026-05-03 22:18 | 27.07629 | -82.11606 | 33246 ft | 466 kts | 161° |
| 2026-05-03 22:18 | 27.04820 | -82.09831 | 32717 ft | 463 kts | 161° |
| 2026-05-03 22:19 | 27.02008 | -82.08057 | 32186 ft | 463 kts | 161° |
| 2026-05-03 22:19 | 26.99192 | -82.06279 | 31654 ft | 465 kts | 160° |
| 2026-05-03 22:19 | 26.96447 | -82.04306 | 31125 ft | 476 kts | 150° |
| 2026-05-03 22:19 | 26.93930 | -82.01818 | 30532 ft | 487 kts | 142° |
| 2026-05-03 22:20 | 26.91587 | -81.99055 | 29916 ft | 490 kts | 140° |
| 2026-05-03 22:20 | 26.89270 | -81.96242 | 29297 ft | 490 kts | 140° |
| 2026-05-03 22:20 | 26.86947 | -81.93467 | 28682 ft | 488 kts | 141° |
| 2026-05-03 22:20 | 26.84620 | -81.90717 | 28067 ft | 484 kts | 141° |
| 2026-05-03 22:21 | 26.82309 | -81.87994 | 27458 ft | 479 kts | 140° |
| 2026-05-03 22:21 | 26.80024 | -81.85301 | 26853 ft | 475 kts | 140° |
| 2026-05-03 22:21 | 26.77758 | -81.82631 | 26389 ft | 468 kts | 140° |
| 2026-05-03 22:21 | 26.75538 | -81.80031 | 25864 ft | 459 kts | 140° |
| 2026-05-03 22:22 | 26.74077 | -81.78331 | 25157 ft | 453 kts | 140° |
| 2026-05-03 22:22 | 26.71925 | -81.75828 | 24364 ft | 443 kts | 140° |
| 2026-05-03 22:22 | 26.69830 | -81.73392 | 23914 ft | 432 kts | 140° |
| 2026-05-03 22:22 | 26.67751 | -81.70978 | 23543 ft | 430 kts | 140° |
| 2026-05-03 22:23 | 26.65677 | -81.68571 | 22996 ft | 428 kts | 140° |
| 2026-05-03 22:23 | 26.63641 | -81.66160 | 22441 ft | 427 kts | 137° |
| 2026-05-03 22:23 | 26.61754 | -81.63601 | 21926 ft | 426 kts | 133° |
| 2026-05-03 22:23 | 26.59973 | -81.60964 | 21431 ft | 423 kts | 131° |
| 2026-05-03 22:24 | 26.58229 | -81.58342 | 20938 ft | 419 kts | 132° |
| 2026-05-03 22:24 | 26.56495 | -81.55751 | 20447 ft | 415 kts | 132° |
| 2026-05-03 22:24 | 26.54764 | -81.53178 | 19960 ft | 411 kts | 132° |
| 2026-05-03 22:24 | 26.53051 | -81.50636 | 19480 ft | 408 kts | 132° |
| 2026-05-03 22:25 | 26.51381 | -81.48154 | 18983 ft | 388 kts | 132° |
| 2026-05-03 22:25 | 26.49799 | -81.45801 | 18539 ft | 375 kts | 132° |
| 2026-05-03 22:25 | 26.48246 | -81.43502 | 18104 ft | 364 kts | 132° |
| 2026-05-03 22:25 | 26.46725 | -81.41251 | 17681 ft | 363 kts | 132° |
| 2026-05-03 22:26 | 26.45204 | -81.39002 | 17254 ft | 361 kts | 132° |
| 2026-05-03 22:26 | 26.43696 | -81.36771 | 16830 ft | 359 kts | 132° |
| 2026-05-03 22:26 | 26.42200 | -81.34555 | 16411 ft | 356 kts | 132° |
| 2026-05-03 22:26 | 26.40681 | -81.32396 | 15993 ft | 345 kts | 134° |
| 2026-05-03 22:27 | 26.39173 | -81.30357 | 15556 ft | 344 kts | 135° |
| 2026-05-03 22:27 | 26.37636 | -81.28308 | 15123 ft | 343 kts | 135° |
| 2026-05-03 22:27 | 26.36106 | -81.26266 | 14695 ft | 343 kts | 135° |
| 2026-05-03 22:27 | 26.34583 | -81.24231 | 14265 ft | 341 kts | 135° |
| 2026-05-03 22:28 | 26.33063 | -81.22198 | 13842 ft | 340 kts | 134° |
| 2026-05-03 22:28 | 26.31552 | -81.20179 | 13418 ft | 338 kts | 134° |
| 2026-05-03 22:28 | 26.30048 | -81.18169 | 12994 ft | 334 kts | 134° |
| 2026-05-03 22:28 | 26.28592 | -81.16224 | 12581 ft | 326 kts | 135° |
| 2026-05-03 22:29 | 26.27155 | -81.14333 | 12224 ft | 318 kts | 135° |
| 2026-05-03 22:29 | 26.25727 | -81.12458 | 11873 ft | 316 kts | 135° |
| 2026-05-03 22:29 | 26.24308 | -81.10592 | 11517 ft | 314 kts | 134° |
| 2026-05-03 22:29 | 26.22898 | -81.08738 | 11169 ft | 313 kts | 134° |
| 2026-05-03 22:30 | 26.21496 | -81.06895 | 10813 ft | 311 kts | 134° |
| 2026-05-03 22:30 | 26.20116 | -81.05081 | 10468 ft | 309 kts | 134° |
| 2026-05-03 22:30 | 26.18729 | -81.03259 | 10120 ft | 308 kts | 134° |
| 2026-05-03 22:30 | 26.17348 | -81.01444 | 9774 ft | 306 kts | 133° |
| 2026-05-03 22:31 | 26.15986 | -80.99636 | 9432 ft | 305 kts | 130° |
| 2026-05-03 22:31 | 26.14903 | -80.97646 | 9085 ft | 301 kts | 115° |
| 2026-05-03 22:31 | 26.14288 | -80.95417 | 8828 ft | 300 kts | 104° |
| 2026-05-03 22:31 | 26.13879 | -80.93153 | 8571 ft | 297 kts | 102° |
| 2026-05-03 22:32 | 26.13515 | -80.90906 | 8316 ft | 294 kts | 102° |
| 2026-05-03 22:32 | 26.13150 | -80.88670 | 8063 ft | 293 kts | 102° |
| 2026-05-03 22:32 | 26.12783 | -80.86447 | 7811 ft | 291 kts | 102° |
| 2026-05-03 22:32 | 26.12426 | -80.84297 | 7560 ft | 272 kts | 102° |
| 2026-05-03 22:33 | 26.12095 | -80.82297 | 7329 ft | 259 kts | 102° |
| 2026-05-03 22:33 | 26.11773 | -80.80344 | 7132 ft | 254 kts | 101° |
| 2026-05-03 22:33 | 26.11485 | -80.78426 | 6986 ft | 249 kts | 100° |
| 2026-05-03 22:33 | 26.11217 | -80.76534 | 6806 ft | 246 kts | 100° |
| 2026-05-03 22:34 | 26.10957 | -80.74656 | 6663 ft | 245 kts | 100° |
| 2026-05-03 22:34 | 26.10698 | -80.72788 | 6525 ft | 245 kts | 99° |
| 2026-05-03 22:34 | 26.10439 | -80.70918 | 6387 ft | 244 kts | 99° |
| 2026-05-03 22:34 | 26.10180 | -80.69051 | 6250 ft | 244 kts | 99° |
| 2026-05-03 22:35 | 26.09922 | -80.67195 | 6113 ft | 242 kts | 99° |
| 2026-05-03 22:35 | 26.09665 | -80.65342 | 5975 ft | 242 kts | 99° |
| 2026-05-03 22:35 | 26.09408 | -80.63496 | 5841 ft | 241 kts | 99° |
| 2026-05-03 22:35 | 26.09152 | -80.61658 | 5704 ft | 240 kts | 99° |
| 2026-05-03 22:36 | 26.08897 | -80.59824 | 5569 ft | 239 kts | 99° |
| 2026-05-03 22:36 | 26.08643 | -80.58001 | 5436 ft | 239 kts | 99° |
| 2026-05-03 22:36 | 26.08389 | -80.56181 | 5302 ft | 237 kts | 99° |
| 2026-05-03 22:36 | 26.08137 | -80.54371 | 5163 ft | 237 kts | 99° |
| 2026-05-03 22:37 | 26.07924 | -80.52568 | 5049 ft | 234 kts | 95° |
| 2026-05-03 22:37 | 26.07842 | -80.50784 | 5019 ft | 235 kts | 91° |
| 2026-05-03 22:37 | 26.07814 | -80.48966 | 5008 ft | 236 kts | 90° |
| 2026-05-03 22:37 | 26.07805 | -80.47140 | 4914 ft | 236 kts | 90° |
| 2026-05-03 22:38 | 26.07801 | -80.45321 | 4749 ft | 233 kts | 90° |
| 2026-05-03 22:38 | 26.07797 | -80.43590 | 4570 ft | 215 kts | 89° |
| 2026-05-03 22:38 | 26.07793 | -80.41958 | 4333 ft | 202 kts | 89° |
| 2026-05-03 22:38 | 26.07789 | -80.40424 | 4104 ft | 197 kts | 89° |
| 2026-05-03 22:39 | 26.07785 | -80.38910 | 3872 ft | 195 kts | 89° |
| 2026-05-03 22:39 | 26.07781 | -80.37420 | 3636 ft | 194 kts | 89° |
| 2026-05-03 22:39 | 26.07775 | -80.35915 | 3388 ft | 192 kts | 89° |
| 2026-05-03 22:39 | 26.07769 | -80.34436 | 3139 ft | 190 kts | 89° |
| 2026-05-03 22:40 | 26.07762 | -80.32972 | 2890 ft | 188 kts | 88° |
| 2026-05-03 22:40 | 26.07756 | -80.31516 | 2640 ft | 188 kts | 88° |
| 2026-05-03 22:40 | 26.07750 | -80.30080 | 2395 ft | 188 kts | 88° |
| 2026-05-03 22:40 | 26.07744 | -80.28628 | 2155 ft | 185 kts | 88° |
| 2026-05-03 22:41 | 26.07738 | -80.27191 | 1906 ft | 187 kts | 88° |
| 2026-05-03 22:41 | 26.07731 | -80.25744 | 1653 ft | 186 kts | 88° |
| 2026-05-03 22:41 | 26.07725 | -80.24305 | 1405 ft | 186 kts | 88° |
| 2026-05-03 22:41 | 26.07718 | -80.22904 | 1157 ft | 172 kts | 88° |
| 2026-05-03 22:42 | 26.07712 | -80.21662 | 912 ft | 150 kts | 88° |
| 2026-05-03 22:42 | 26.07710 | -80.20527 | 752 ft | 146 kts | 88° |
| 2026-05-03 22:42 | 26.07706 | -80.19401 | 563 ft | 145 kts | 88° |
| 2026-05-03 22:42 | 26.07699 | -80.18288 | 375 ft | 143 kts | 88° |
| 2026-05-03 22:43 | 26.07695 | -80.17180 | 181 ft | 143 kts | 88° |
| 2026-05-03 22:43 | 26.07685 | -80.16090 | 56 ft | 136 kts | 88° |
| 2026-05-03 22:43 | 26.07684 | -80.15135 | 18 ft | 109 kts | 88° |
| 2026-05-03 22:43 | 26.07683 | -80.14400 | 18 ft | 82 kts | 89° |
| 2026-05-03 22:44 | 26.07673 | -80.14034 | 18 ft | 19 kts | 149° |
| 2026-05-03 22:44 | 26.07598 | -80.14029 | 18 ft | 0 kts | 185° |
| 2026-05-03 22:46 | 26.07562 | -80.14018 | 74 ft | 7 kts | 160° |
| 2026-05-03 22:46 | 26.07512 | -80.14001 | 74 ft | 8 kts | 170° |